Time;durP1;ratioP1;P1;durP2;ratioP2;P2;SDS_P1;SDS_P2;PMS_P1;PMS_P2;Temp;Humidity;BMP_temperature;BMP_pressure;BME280_temperature;BME280_humidity;BME280_pressure;Samples;Min_cycle;Max_cycle;Signal;HPM_P1;HPM_P2
2022/07/07 00:00:47;;;;;;;1.65;0.90;;;20.80;96.80;;;;;;4124819;28;20042;-68
2022/07/07 00:02:48;;;;;;;3.38;1.17;;;20.80;98.80;;;;;;4121303;28;20121;-68
2022/07/07 00:04:48;;;;;;;1.65;0.90;;;20.80;97.20;;;;;;4120395;28;20045;-69
2022/07/07 00:06:49;;;;;;;1.48;1.00;;;20.70;98.50;;;;;;4122036;28;20043;-68
2022/07/07 00:08:54;;;;;;;2.35;1.27;;;20.70;97.80;;;;;;4119965;28;20058;-68
2022/07/07 00:10:56;;;;;;;2.92;1.13;;;20.70;98.60;;;;;;4116750;28;20474;-69
2022/07/07 00:12:56;;;;;;;1.27;1.17;;;20.70;98.00;;;;;;4128178;28;20031;-68
2022/07/07 00:14:57;;;;;;;2.97;1.33;;;20.70;98.10;;;;;;4128476;28;20114;-68
2022/07/07 00:16:58;;;;;;;4.88;1.20;;;20.60;97.90;;;;;;4120802;28;20030;-68
2022/07/07 00:19:01;;;;;;;3.72;1.10;;;20.60;98.30;;;;;;4120389;28;20026;-68
2022/07/07 00:21:02;;;;;;;2.78;1.27;;;20.50;98.50;;;;;;4119972;28;20074;-68
2022/07/07 00:23:02;;;;;;;1.85;1.40;;;20.50;99.60;;;;;;4127693;28;20038;-69
2022/07/07 00:25:05;;;;;;;2.17;1.45;;;20.40;99.10;;;;;;4128072;28;20353;-70
2022/07/07 00:27:05;;;;;;;2.67;1.38;;;20.50;99.00;;;;;;4125009;28;20065;-68
2022/07/07 00:29:06;;;;;;;2.72;1.15;;;20.50;99.90;;;;;;4119970;28;20126;-68
2022/07/07 00:31:07;;;;;;;2.28;1.20;;;20.50;99.70;;;;;;4121016;28;20026;-68
2022/07/07 00:33:08;;;;;;;2.88;1.45;;;20.50;99.40;;;;;;4118990;28;20031;-68
2022/07/07 00:35:08;;;;;;;2.97;1.40;;;20.50;99.60;;;;;;4120123;28;20062;-71
2022/07/07 00:37:09;;;;;;;2.38;0.93;;;20.50;99.40;;;;;;4123030;28;20035;-68
2022/07/07 00:39:10;;;;;;;4.18;1.20;;;20.50;99.90;;;;;;4120739;28;20034;-68
2022/07/07 00:41:10;;;;;;;2.35;1.15;;;20.50;99.70;;;;;;4120712;28;20130;-69
2022/07/07 00:43:11;;;;;;;4.65;1.30;;;20.50;99.80;;;;;;4120816;28;20425;-69
2022/07/07 00:45:11;;;;;;;3.33;1.00;;;20.50;99.60;;;;;;4119897;28;20085;-69
2022/07/07 00:47:12;;;;;;;0.98;0.88;;;20.50;99.90;;;;;;4124255;28;20042;-68
2022/07/07 00:49:17;;;;;;;2.10;1.45;;;20.50;99.90;;;;;;4118717;28;20039;-68
2022/07/07 00:51:17;;;;;;;2.33;1.50;;;20.50;99.90;;;;;;4126175;28;20031;-68
2022/07/07 00:53:18;;;;;;;2.75;1.15;;;20.50;99.10;;;;;;4126540;28;20482;-69
2022/07/07 00:55:18;;;;;;;2.38;1.20;;;20.50;99.90;;;;;;4117809;28;20039;-69
2022/07/07 00:57:19;;;;;;;1.23;1.08;;;20.60;99.90;;;;;;4118524;28;20039;-68
2022/07/07 00:59:20;;;;;;;4.82;1.92;;;20.50;99.70;;;;;;4120463;28;20061;-68
2022/07/07 01:01:20;;;;;;;2.40;1.25;;;20.50;99.90;;;;;;4124632;28;20125;-68
2022/07/07 01:03:21;;;;;;;2.78;1.67;;;20.60;99.90;;;;;;4120336;28;20050;-68
2022/07/07 01:05:23;;;;;;;4.00;2.10;;;20.50;99.90;;;;;;4119840;28;20125;-69
2022/07/07 01:07:24;;;;;;;2.88;1.63;;;20.50;99.90;;;;;;4123019;28;20043;-68
2022/07/07 01:09:24;;;;;;;2.53;1.55;;;20.50;99.90;;;;;;4124392;28;20057;-68
2022/07/07 01:11:25;;;;;;;3.67;2.30;;;20.50;99.90;;;;;;4124696;28;20034;-68
2022/07/07 01:13:26;;;;;;;3.35;2.00;;;20.50;99.90;;;;;;4120299;28;20111;-68
2022/07/07 01:15:27;;;;;;;6.00;2.90;;;20.50;99.90;;;;;;4120313;28;20038;-68
2022/07/07 01:17:27;;;;;;;4.72;2.60;;;20.40;99.90;;;;;;4127713;28;20041;-68
2022/07/07 01:19:28;;;;;;;3.67;2.60;;;20.40;99.90;;;;;;4120952;28;20035;-68
2022/07/07 01:21:33;;;;;;;5.60;2.50;;;20.40;99.90;;;;;;4114830;28;20034;-68
2022/07/07 01:23:34;;;;;;;5.15;2.83;;;20.40;99.90;;;;;;4120351;28;20031;-68
2022/07/07 01:25:34;;;;;;;5.40;2.70;;;20.30;99.90;;;;;;4124530;28;20031;-68
2022/07/07 01:27:35;;;;;;;4.70;2.60;;;20.30;99.90;;;;;;4115246;28;20041;-69
2022/07/07 01:29:41;;;;;;;4.18;2.40;;;20.30;99.90;;;;;;4123122;28;20031;-68
2022/07/07 01:31:41;;;;;;;5.10;2.33;;;20.30;99.90;;;;;;4126635;28;20121;-68
2022/07/07 01:33:42;;;;;;;3.15;2.40;;;20.30;99.90;;;;;;4125658;28;20056;-68
2022/07/07 01:35:42;;;;;;;2.58;2.00;;;20.30;99.90;;;;;;4123905;28;20034;-68
2022/07/07 01:37:43;;;;;;;6.45;2.55;;;20.30;99.90;;;;;;4125376;28;20026;-68
2022/07/07 01:39:44;;;;;;;5.47;2.60;;;20.30;99.90;;;;;;4126013;28;20034;-68
2022/07/07 01:41:44;;;;;;;6.03;2.97;;;20.30;99.90;;;;;;4125767;28;20050;-68
2022/07/07 01:43:45;;;;;;;4.80;2.25;;;20.30;99.90;;;;;;4121923;28;20058;-68
2022/07/07 01:45:45;;;;;;;5.30;2.20;;;20.20;99.90;;;;;;4125357;28;20046;-68
2022/07/07 01:47:46;;;;;;;3.20;2.38;;;20.20;99.90;;;;;;4129372;28;20485;-68
2022/07/07 01:49:47;;;;;;;6.55;3.05;;;20.20;99.90;;;;;;4122474;28;20045;-68
2022/07/07 01:51:48;;;;;;;2.67;2.33;;;20.20;99.90;;;;;;4126633;28;20054;-68
2022/07/07 01:53:48;;;;;;;2.90;2.03;;;20.20;99.90;;;;;;4125004;28;20038;-68
2022/07/07 01:55:49;;;;;;;6.68;2.28;;;20.20;99.90;;;;;;4122645;28;20038;-68
2022/07/07 01:57:49;;;;;;;3.28;2.35;;;20.20;99.90;;;;;;4127372;28;20042;-68
2022/07/07 01:59:50;;;;;;;3.40;1.98;;;20.20;99.90;;;;;;4126240;28;20050;-68
2022/07/07 02:01:51;;;;;;;3.45;2.35;;;20.20;99.90;;;;;;4123228;28;20486;-68
2022/07/07 02:03:52;;;;;;;4.03;2.38;;;20.20;99.90;;;;;;4125720;28;20097;-68
2022/07/07 02:05:52;;;;;;;3.90;2.50;;;20.20;99.90;;;;;;4121824;28;20494;-68
2022/07/07 02:07:53;;;;;;;3.95;2.50;;;20.20;99.90;;;;;;4122585;28;20042;-68
2022/07/07 02:09:53;;;;;;;3.30;2.08;;;20.20;99.90;;;;;;4122794;28;20046;-68
2022/07/07 02:11:54;;;;;;;3.40;2.42;;;20.20;99.90;;;;;;4126393;28;20550;-68
2022/07/07 02:13:55;;;;;;;3.45;2.20;;;20.20;99.90;;;;;;4124291;28;20043;-68
2022/07/07 02:15:55;;;;;;;5.85;2.40;;;20.20;99.90;;;;;;4124438;28;20035;-68
2022/07/07 02:17:56;;;;;;;3.17;2.70;;;20.10;99.90;;;;;;4122623;28;20516;-68
2022/07/07 02:19:57;;;;;;;3.72;2.47;;;20.10;99.90;;;;;;4124802;28;20034;-68
2022/07/07 02:21:57;;;;;;;4.05;2.00;;;20.10;99.90;;;;;;4126447;28;20026;-67
2022/07/07 02:23:58;;;;;;;3.17;2.00;;;20.10;99.90;;;;;;4126653;28;20093;-68
2022/07/07 02:25:59;;;;;;;3.67;2.33;;;20.10;99.90;;;;;;4121826;28;20057;-68
2022/07/07 02:27:59;;;;;;;3.35;2.35;;;20.10;99.90;;;;;;4122447;28;20035;-68
2022/07/07 02:30:00;;;;;;;3.25;2.17;;;20.10;99.90;;;;;;4124003;28;20089;-68
2022/07/07 02:32:01;;;;;;;4.25;2.30;;;20.10;99.90;;;;;;4125339;28;20037;-68
2022/07/07 02:34:01;;;;;;;4.55;2.40;;;20.10;99.90;;;;;;4123802;28;20470;-68
2022/07/07 02:36:03;;;;;;;3.67;2.28;;;20.10;99.90;;;;;;4121432;28;20077;-68
2022/07/07 02:38:04;;;;;;;5.80;2.57;;;20.10;99.90;;;;;;4122256;28;20668;-67
2022/07/07 02:40:05;;;;;;;4.60;2.45;;;20.10;99.90;;;;;;4124583;28;20262;-69
2022/07/07 02:42:06;;;;;;;2.65;2.30;;;20.10;99.90;;;;;;4126868;28;20089;-68
2022/07/07 02:44:06;;;;;;;4.82;2.75;;;20.10;99.90;;;;;;4123228;28;20038;-68
2022/07/07 02:46:07;;;;;;;2.80;2.50;;;20.10;99.90;;;;;;4121495;28;20070;-68
2022/07/07 02:48:09;;;;;;;4.43;2.33;;;20.10;99.90;;;;;;4121868;28;20570;-68
2022/07/07 02:50:10;;;;;;;3.92;2.70;;;20.10;99.90;;;;;;4123644;28;20034;-70
2022/07/07 02:52:10;;;;;;;3.88;2.78;;;20.00;99.90;;;;;;4125081;28;20130;-68
2022/07/07 02:54:11;;;;;;;4.32;2.42;;;20.00;99.90;;;;;;4123935;28;20394;-68
2022/07/07 02:56:12;;;;;;;3.08;2.30;;;20.00;99.90;;;;;;4121771;28;20050;-68
2022/07/07 02:58:19;;;;;;;4.50;2.38;;;20.00;99.90;;;;;;4121833;28;20038;-68
2022/07/07 03:00:20;;;;;;;5.15;2.38;;;20.00;99.90;;;;;;4127017;28;20035;-69
2022/07/07 03:02:20;;;;;;;2.28;1.92;;;20.00;99.90;;;;;;4130275;28;20481;-68
2022/07/07 03:04:21;;;;;;;3.03;2.40;;;20.00;99.90;;;;;;4130547;28;20478;-68
2022/07/07 03:06:21;;;;;;;3.75;2.17;;;19.90;99.90;;;;;;4129624;28;20415;-68
2022/07/07 03:08:22;;;;;;;5.28;2.40;;;20.00;99.90;;;;;;4130333;28;20039;-68
2022/07/07 03:10:23;;;;;;;3.22;2.10;;;20.00;99.90;;;;;;4127982;28;20031;-69
2022/07/07 03:12:23;;;;;;;3.17;1.98;;;20.00;99.90;;;;;;4130212;28;20089;-68
2022/07/07 03:14:24;;;;;;;2.10;1.90;;;20.00;99.90;;;;;;4130428;28;20026;-68
2022/07/07 03:16:25;;;;;;;3.22;2.47;;;20.00;99.90;;;;;;4129944;28;20085;-68
2022/07/07 03:18:26;;;;;;;6.07;2.42;;;20.00;99.90;;;;;;4130492;28;20465;-68
2022/07/07 03:20:26;;;;;;;4.18;2.63;;;20.00;99.90;;;;;;4128923;28;20105;-69
2022/07/07 03:22:27;;;;;;;4.15;2.28;;;20.00;99.90;;;;;;4130124;28;20411;-68
2022/07/07 03:24:31;;;;;;;4.05;2.05;;;20.00;99.90;;;;;;4130227;28;20393;-68
2022/07/07 03:26:31;;;;;;;5.05;2.75;;;20.00;99.90;;;;;;4127552;28;20031;-68
2022/07/07 03:28:32;;;;;;;3.97;2.80;;;20.00;99.90;;;;;;4130299;28;20515;-69
2022/07/07 03:30:33;;;;;;;3.47;2.47;;;20.00;99.90;;;;;;4127068;28;20693;-67
2022/07/07 03:32:33;;;;;;;4.25;2.60;;;19.90;99.90;;;;;;4130172;28;20038;-67
2022/07/07 03:34:34;;;;;;;4.05;2.38;;;19.90;99.90;;;;;;4130096;28;20370;-68
2022/07/07 03:36:35;;;;;;;4.70;2.42;;;19.90;99.90;;;;;;4129537;28;20030;-67
2022/07/07 03:38:35;;;;;;;4.50;2.78;;;19.90;99.90;;;;;;4130105;28;20109;-68
2022/07/07 03:40:36;;;;;;;3.38;2.30;;;19.90;99.90;;;;;;4126502;28;20077;-67
2022/07/07 03:42:37;;;;;;;5.00;2.72;;;19.90;99.90;;;;;;4129841;28;20045;-68
2022/07/07 03:44:38;;;;;;;2.78;2.10;;;19.90;99.90;;;;;;4129911;28;20046;-68
2022/07/07 03:46:38;;;;;;;5.68;2.47;;;19.90;99.90;;;;;;4128155;28;20042;-68
2022/07/07 03:48:39;;;;;;;6.68;3.08;;;19.90;99.90;;;;;;4129525;28;20110;-68
2022/07/07 03:50:41;;;;;;;4.20;2.65;;;19.90;99.90;;;;;;4126167;28;20049;-68
2022/07/07 03:52:41;;;;;;;3.22;2.28;;;20.00;99.90;;;;;;4129550;28;20054;-68
2022/07/07 03:54:42;;;;;;;4.00;2.65;;;20.00;99.90;;;;;;4129737;28;20034;-67
2022/07/07 03:56:43;;;;;;;3.17;2.40;;;19.90;99.90;;;;;;4128801;28;20030;-68
2022/07/07 03:58:43;;;;;;;6.28;2.90;;;19.90;99.90;;;;;;4129295;28;20034;-68
2022/07/07 04:00:44;;;;;;;3.65;2.20;;;19.90;99.90;;;;;;4126896;28;20510;-68
2022/07/07 04:02:44;;;;;;;4.45;2.45;;;19.90;99.90;;;;;;4129437;28;20085;-68
2022/07/07 04:04:45;;;;;;;4.95;2.30;;;19.90;99.90;;;;;;4129695;28;20030;-68
2022/07/07 04:06:46;;;;;;;5.75;2.72;;;19.90;99.90;;;;;;4128888;28;20041;-68
2022/07/07 04:08:46;;;;;;;3.47;2.38;;;19.80;99.90;;;;;;4129731;28;20441;-68
2022/07/07 04:10:47;;;;;;;4.03;2.60;;;19.90;99.90;;;;;;4128427;28;20052;-68
2022/07/07 04:12:47;;;;;;;3.95;2.42;;;19.80;99.90;;;;;;4129368;28;21543;-68
2022/07/07 04:14:48;;;;;;;3.95;2.30;;;19.90;99.90;;;;;;4129243;28;20042;-68
2022/07/07 04:16:49;;;;;;;3.80;2.60;;;19.90;99.90;;;;;;4128746;28;20057;-68
2022/07/07 04:18:49;;;;;;;5.05;2.50;;;19.80;99.90;;;;;;4129425;28;20046;-69
2022/07/07 04:20:50;;;;;;;6.70;2.78;;;19.80;99.90;;;;;;4126634;28;20054;-70
2022/07/07 04:22:51;;;;;;;2.80;2.47;;;19.80;99.90;;;;;;4129430;28;20486;-70
2022/07/07 04:24:51;;;;;;;6.10;2.83;;;19.80;99.90;;;;;;4129709;28;20035;-70
2022/07/07 04:26:52;;;;;;;7.53;2.70;;;19.70;99.90;;;;;;4128624;28;20490;-70
2022/07/07 04:28:52;;;;;;;3.30;2.65;;;19.60;99.90;;;;;;4129452;28;20031;-69
2022/07/07 04:30:53;;;;;;;4.80;3.13;;;19.60;99.90;;;;;;4125997;28;20058;-69
2022/07/07 04:32:53;;;;;;;6.20;3.47;;;19.60;99.90;;;;;;4129484;28;20042;-69
2022/07/07 04:34:54;;;;;;;7.30;3.22;;;19.50;99.90;;;;;;4129201;28;20106;-69
2022/07/07 04:36:54;;;;;;;6.97;3.20;;;19.30;99.90;;;;;;4128842;28;20034;-69
2022/07/07 04:38:56;;;;;;;4.50;2.83;;;19.20;99.90;;;;;;4129262;28;20516;-69
2022/07/07 04:40:57;;;;;;;6.93;3.33;;;19.20;99.90;;;;;;4126094;28;20037;-69
2022/07/07 04:42:57;;;;;;;4.30;2.58;;;19.20;99.90;;;;;;4129146;28;20062;-69
2022/07/07 04:44:58;;;;;;;3.63;2.78;;;19.10;99.90;;;;;;4128948;28;20057;-70
2022/07/07 04:46:59;;;;;;;5.72;3.30;;;19.00;99.90;;;;;;4128290;28;20038;-68
2022/07/07 04:49:00;;;;;;;4.80;2.55;;;18.90;99.90;;;;;;4128458;28;20042;-69
2022/07/07 04:51:00;;;;;;;4.00;2.60;;;18.90;99.90;;;;;;4126862;28;20043;-69
2022/07/07 04:53:01;;;;;;;2.85;1.98;;;18.90;99.90;;;;;;4128924;28;20054;-69
2022/07/07 04:55:02;;;;;;;3.92;2.15;;;18.90;99.90;;;;;;4128893;28;20540;-71
2022/07/07 04:57:03;;;;;;;4.05;2.40;;;18.90;99.90;;;;;;4128370;28;20041;-69
2022/07/07 04:59:04;;;;;;;5.53;1.92;;;18.80;99.90;;;;;;4132030;28;20397;-69
2022/07/07 05:01:04;;;;;;;2.40;1.83;;;18.80;99.90;;;;;;4129876;28;20437;-69
2022/07/07 05:03:05;;;;;;;2.17;1.73;;;18.80;99.90;;;;;;4131874;28;20042;-69
2022/07/07 05:05:06;;;;;;;5.07;1.77;;;18.80;99.90;;;;;;4131895;28;20038;-72
2022/07/07 05:07:07;;;;;;;3.53;1.70;;;18.60;99.90;;;;;;4131765;28;20027;-69
2022/07/07 05:09:09;;;;;;;2.10;1.45;;;18.60;99.90;;;;;;4132370;28;20560;-68
2022/07/07 05:11:09;;;;;;;3.23;1.43;;;18.60;99.90;;;;;;4125177;28;20125;-69
2022/07/07 05:13:10;;;;;;;2.78;1.48;;;18.60;99.90;;;;;;4131822;28;20270;-69
2022/07/07 05:15:10;;;;;;;3.13;1.70;;;18.50;99.90;;;;;;4131743;28;20092;-70
2022/07/07 05:17:11;;;;;;;2.35;1.60;;;18.40;99.90;;;;;;4132246;28;20042;-69
2022/07/07 05:19:11;;;;;;;2.38;1.63;;;18.50;99.90;;;;;;4132197;28;20035;-69
2022/07/07 05:21:12;;;;;;;3.65;2.00;;;18.40;99.90;;;;;;4130798;28;20038;-69
2022/07/07 05:23:13;;;;;;;3.20;1.55;;;18.40;99.90;;;;;;4127670;28;20034;-70
2022/07/07 05:25:13;;;;;;;3.92;1.75;;;18.30;99.90;;;;;;4131333;28;20030;-70
2022/07/07 05:27:14;;;;;;;2.03;1.40;;;18.40;99.90;;;;;;4131717;28;20509;-70
2022/07/07 05:29:14;;;;;;;4.38;1.73;;;18.40;99.90;;;;;;4148176;28;20448;-70
2022/07/07 05:31:15;;;;;;;5.80;2.38;;;18.40;99.90;;;;;;4134790;28;20034;-70
2022/07/07 05:33:16;;;;;;;1.60;1.20;;;18.40;99.90;;;;;;4139247;28;20045;-70
2022/07/07 05:35:17;;;;;;;2.65;1.73;;;18.50;99.90;;;;;;4147089;28;20489;-70
2022/07/07 05:37:18;;;;;;;2.40;1.67;;;18.50;99.90;;;;;;4147895;28;20048;-70
2022/07/07 05:39:18;;;;;;;3.33;1.40;;;18.50;99.90;;;;;;4126066;28;20062;-71
2022/07/07 05:41:19;;;;;;;1.88;1.35;;;18.40;99.90;;;;;;4125306;28;20053;-71
2022/07/07 05:43:20;;;;;;;2.75;1.70;;;18.50;99.90;;;;;;4131213;28;20046;-71
2022/07/07 05:45:20;;;;;;;2.55;1.58;;;18.50;99.90;;;;;;4130799;28;20053;-71
2022/07/07 05:47:21;;;;;;;3.55;1.83;;;18.40;99.90;;;;;;4131293;28;20038;-71
2022/07/07 05:49:21;;;;;;;1.90;1.60;;;18.40;99.90;;;;;;4131073;28;20085;-70
2022/07/07 05:51:22;;;;;;;3.05;1.60;;;18.40;99.90;;;;;;4127998;28;20038;-71
2022/07/07 05:53:23;;;;;;;4.78;1.85;;;18.40;99.90;;;;;;4131057;28;20506;-71
2022/07/07 05:55:23;;;;;;;3.17;1.52;;;18.40;99.90;;;;;;4129558;28;20461;-71
2022/07/07 05:57:24;;;;;;;3.35;1.45;;;18.40;99.90;;;;;;4131113;28;20041;-70
2022/07/07 05:59:25;;;;;;;1.63;1.50;;;18.40;99.90;;;;;;4144320;28;20037;-70
2022/07/07 06:01:25;;;;;;;2.45;1.48;;;18.40;99.90;;;;;;4134453;28;20038;-70
2022/07/07 06:03:26;;;;;;;1.52;1.42;;;18.40;99.90;;;;;;4136089;28;20034;-70
2022/07/07 06:05:26;;;;;;;4.05;1.45;;;18.30;99.90;;;;;;4146918;28;20049;-70
2022/07/07 06:07:27;;;;;;;2.35;1.50;;;18.40;99.90;;;;;;4144110;28;21029;-70
2022/07/07 06:09:27;;;;;;;2.10;1.38;;;18.40;99.90;;;;;;4130061;28;20046;-70
2022/07/07 06:11:28;;;;;;;2.00;1.60;;;18.40;99.90;;;;;;4127965;28;20552;-70
2022/07/07 06:13:29;;;;;;;1.80;1.20;;;18.40;99.90;;;;;;4131211;28;20497;-70
2022/07/07 06:15:33;;;;;;;2.53;1.42;;;18.40;99.90;;;;;;4130536;28;20486;-70
2022/07/07 06:17:34;;;;;;;2.75;1.48;;;18.40;99.90;;;;;;4130426;28;20158;-70
2022/07/07 06:19:34;;;;;;;2.08;1.67;;;18.40;99.90;;;;;;4142286;28;20030;-72
2022/07/07 06:21:36;;;;;;;3.13;1.50;;;18.50;99.90;;;;;;4131793;28;20038;-70
2022/07/07 06:23:36;;;;;;;4.43;1.58;;;18.50;99.90;;;;;;4125942;28;20043;-69
2022/07/07 06:25:37;;;;;;;2.58;1.60;;;18.50;99.90;;;;;;4121625;28;20042;-69
2022/07/07 06:27:37;;;;;;;2.38;1.45;;;18.50;99.90;;;;;;4122319;28;20043;-69
2022/07/07 06:29:38;;;;;;;3.13;1.52;;;18.50;99.90;;;;;;4122435;28;20038;-69
2022/07/07 06:31:39;;;;;;;3.13;1.75;;;18.40;99.90;;;;;;4125253;28;20023;-69
2022/07/07 06:33:39;;;;;;;3.35;1.52;;;18.50;99.90;;;;;;4123897;28;20034;-70
2022/07/07 06:35:40;;;;;;;1.63;1.27;;;18.50;99.90;;;;;;4122277;28;20026;-70
2022/07/07 06:37:40;;;;;;;3.08;1.50;;;18.50;99.90;;;;;;4124301;28;20172;-69
2022/07/07 06:39:41;;;;;;;2.60;1.38;;;18.60;99.90;;;;;;4123390;28;20035;-68
2022/07/07 06:41:42;;;;;;;1.65;1.27;;;18.60;99.90;;;;;;4123747;28;20042;-69
2022/07/07 06:43:43;;;;;;;6.05;1.58;;;18.60;99.90;;;;;;4125965;28;20121;-69
2022/07/07 06:45:43;;;;;;;4.15;1.48;;;18.70;99.90;;;;;;4122159;28;20208;-69
2022/07/07 06:47:44;;;;;;;4.43;1.52;;;18.60;99.90;;;;;;4127209;28;20061;-69
2022/07/07 06:49:45;;;;;;;4.68;1.30;;;18.60;99.90;;;;;;4122274;28;20031;-69
2022/07/07 06:51:46;;;;;;;3.00;1.08;;;18.60;99.90;;;;;;4124565;28;20096;-69
2022/07/07 06:53:46;;;;;;;4.65;1.30;;;18.60;99.90;;;;;;4120263;28;20042;-69
2022/07/07 06:55:47;;;;;;;3.03;1.02;;;18.60;99.90;;;;;;4122411;28;20055;-69
2022/07/07 06:57:47;;;;;;;1.55;0.75;;;18.60;99.90;;;;;;4120386;28;20092;-69
2022/07/07 06:59:48;;;;;;;2.20;0.93;;;18.50;99.90;;;;;;4126902;28;20038;-69
2022/07/07 07:01:49;;;;;;;3.92;0.90;;;18.50;99.90;;;;;;4120637;28;20034;-69
2022/07/07 07:03:49;;;;;;;5.32;0.95;;;18.50;99.90;;;;;;4123108;28;20044;-69
2022/07/07 07:05:50;;;;;;;2.88;1.02;;;18.50;99.90;;;;;;4124011;28;20046;-69
2022/07/07 07:07:50;;;;;;;1.80;0.75;;;18.60;99.90;;;;;;4127999;28;20046;-69
2022/07/07 07:09:51;;;;;;;3.00;0.80;;;18.60;99.90;;;;;;4107244;28;20034;-69
2022/07/07 07:11:52;;;;;;;2.35;0.73;;;18.70;99.90;;;;;;4123076;28;20169;-69
2022/07/07 07:13:53;;;;;;;2.20;0.75;;;18.70;99.90;;;;;;4120299;28;20068;-69
2022/07/07 07:15:54;;;;;;;1.35;0.65;;;18.80;99.90;;;;;;4126467;28;20043;-69
2022/07/07 07:17:54;;;;;;;3.58;1.13;;;18.90;99.90;;;;;;4121346;28;20030;-68
2022/07/07 07:19:55;;;;;;;6.18;1.00;;;19.00;99.90;;;;;;4124390;28;20034;-69
2022/07/07 07:21:56;;;;;;;1.50;0.70;;;19.00;99.90;;;;;;4122860;28;20143;-68
2022/07/07 07:23:56;;;;;;;5.43;1.02;;;19.00;99.90;;;;;;4117980;28;20043;-68
2022/07/07 07:25:57;;;;;;;3.25;0.90;;;19.00;99.90;;;;;;4120858;28;20082;-69
2022/07/07 07:27:58;;;;;;;3.70;0.93;;;19.10;99.90;;;;;;4121685;28;20047;-69
2022/07/07 07:29:58;;;;;;;1.45;0.80;;;19.20;99.90;;;;;;4124622;28;20108;-69
2022/07/07 07:31:59;;;;;;;2.60;0.80;;;19.30;99.90;;;;;;4123558;28;20165;-68
2022/07/07 07:34:00;;;;;;;1.35;0.70;;;19.30;99.90;;;;;;4121187;28;20031;-69
2022/07/07 07:36:02;;;;;;;1.88;0.80;;;19.30;99.90;;;;;;4125923;28;20039;-68
2022/07/07 07:38:02;;;;;;;4.30;1.13;;;19.30;99.90;;;;;;4118544;28;20065;-68
2022/07/07 07:40:03;;;;;;;3.28;0.90;;;19.30;99.90;;;;;;4115523;28;20027;-70
2022/07/07 07:42:04;;;;;;;6.32;1.33;;;19.40;99.90;;;;;;4127528;28;20034;-67
2022/07/07 07:44:05;;;;;;;4.35;1.23;;;19.50;99.90;;;;;;4129765;28;20048;-68
2022/07/07 07:46:05;;;;;;;3.25;1.05;;;19.30;99.90;;;;;;4129015;28;20030;-68
2022/07/07 07:48:06;;;;;;;5.28;1.40;;;19.10;99.90;;;;;;4129675;28;20038;-68
2022/07/07 07:50:08;;;;;;;3.30;0.80;;;19.10;99.90;;;;;;4125433;28;20478;-69
2022/07/07 07:52:08;;;;;;;4.20;1.20;;;19.00;99.90;;;;;;4121053;28;20038;-68
2022/07/07 07:54:10;;;;;;;4.63;1.13;;;18.80;99.90;;;;;;4113486;28;20039;-69
2022/07/07 07:56:11;;;;;;;3.28;1.20;;;18.80;99.90;;;;;;4132431;28;20049;-68
2022/07/07 07:58:11;;;;;;;6.97;1.83;;;18.80;99.90;;;;;;4145914;28;20081;-68
2022/07/07 08:00:14;;;;;;;3.03;0.82;;;18.80;99.90;;;;;;4141397;28;20046;-70
2022/07/07 08:02:15;;;;;;;3.72;1.20;;;18.80;99.90;;;;;;4129255;28;20512;-69
2022/07/07 08:04:16;;;;;;;3.67;1.02;;;18.90;99.90;;;;;;4129362;28;20125;-68
2022/07/07 08:06:16;;;;;;;7.07;1.80;;;18.90;99.90;;;;;;4128796;28;20066;-69
2022/07/07 08:08:17;;;;;;;2.10;0.77;;;19.00;99.90;;;;;;4129490;28;20117;-69
2022/07/07 08:10:18;;;;;;;5.50;1.38;;;19.00;99.90;;;;;;4127481;28;20046;-69
2022/07/07 08:12:19;;;;;;;2.45;1.00;;;19.00;99.90;;;;;;4129272;28;20049;-69
2022/07/07 08:14:19;;;;;;;5.90;1.33;;;19.10;99.90;;;;;;4129694;28;20046;-69
2022/07/07 08:16:20;;;;;;;3.05;1.00;;;19.10;99.90;;;;;;4128630;28;20445;-69
2022/07/07 08:18:20;;;;;;;3.83;1.05;;;19.20;99.90;;;;;;4129387;28;20045;-69
2022/07/07 08:20:21;;;;;;;3.08;0.90;;;19.20;99.90;;;;;;4125835;28;20042;-69
2022/07/07 08:22:21;;;;;;;2.78;1.00;;;19.30;99.90;;;;;;4113548;28;20118;-69
2022/07/07 08:24:22;;;;;;;3.13;0.80;;;19.30;99.90;;;;;;4112939;28;20039;-69
2022/07/07 08:26:23;;;;;;;3.85;0.88;;;19.40;99.90;;;;;;4119239;28;20378;-68
2022/07/07 08:28:23;;;;;;;5.95;1.00;;;19.40;99.90;;;;;;4129254;28;20441;-68
2022/07/07 08:30:24;;;;;;;5.03;1.17;;;19.30;99.90;;;;;;4127196;28;20054;-69
2022/07/07 08:32:25;;;;;;;4.53;1.20;;;19.40;99.90;;;;;;4128726;28;20033;-69
2022/07/07 08:34:25;;;;;;;4.22;1.27;;;19.40;99.90;;;;;;4126054;28;20058;-69
2022/07/07 08:36:26;;;;;;;6.18;1.30;;;19.40;99.90;;;;;;4117829;28;20039;-68
2022/07/07 08:38:26;;;;;;;3.67;1.23;;;19.30;99.90;;;;;;4128921;28;20073;-68
2022/07/07 08:40:27;;;;;;;4.43;1.00;;;19.30;99.90;;;;;;4125684;28;20054;-69
2022/07/07 08:42:28;;;;;;;4.10;0.90;;;19.30;99.90;;;;;;4139504;28;20030;-68
2022/07/07 08:44:29;;;;;;;3.10;1.08;;;19.30;99.90;;;;;;4144510;28;20041;-68
2022/07/07 08:46:29;;;;;;;5.60;1.25;;;19.40;99.90;;;;;;4143838;28;20022;-68
2022/07/07 08:48:30;;;;;;;6.75;1.02;;;19.40;99.90;;;;;;4145150;28;20034;-68
2022/07/07 08:50:31;;;;;;;3.72;1.13;;;19.50;99.90;;;;;;4139535;28;20038;-69
2022/07/07 08:52:32;;;;;;;4.22;1.52;;;19.50;99.90;;;;;;4128690;28;20034;-67
2022/07/07 08:54:35;;;;;;;4.15;1.67;;;19.40;99.90;;;;;;4128954;28;20053;-68
2022/07/07 08:56:38;;;;;;;2.85;0.80;;;19.40;99.90;;;;;;4132251;28;20026;-70
2022/07/07 08:58:39;;;;;;;3.38;1.27;;;19.20;99.90;;;;;;4123894;28;20031;-69
2022/07/07 09:00:40;;;;;;;7.05;1.23;;;19.20;99.90;;;;;;4119439;28;20121;-68
2022/07/07 09:02:40;;;;;;;4.57;1.30;;;19.10;99.90;;;;;;4127842;28;20082;-68
2022/07/07 09:04:41;;;;;;;3.70;1.00;;;19.20;99.90;;;;;;4110919;28;20061;-69
2022/07/07 09:06:52;;;;;;;3.85;0.98;;;19.10;99.90;;;;;;4125705;28;20030;-69
2022/07/07 09:08:55;;;;;;;3.78;1.00;;;19.20;99.90;;;;;;4112839;28;20027;-69
2022/07/07 09:10:56;;;;;;;3.50;1.38;;;19.30;99.90;;;;;;4124887;28;20026;-69
2022/07/07 09:12:57;;;;;;;3.28;1.27;;;19.50;99.90;;;;;;4126991;28;20027;-69
2022/07/07 09:15:03;;;;;;;4.80;1.10;;;19.60;99.90;;;;;;4126687;28;20038;-69
2022/07/07 09:17:15;;;;;;;3.13;0.73;;;19.70;99.90;;;;;;4127842;28;20029;-69
2022/07/07 09:19:25;;;;;;;2.92;0.82;;;19.70;99.90;;;;;;4128288;28;20030;-69
2022/07/07 09:21:30;;;;;;;2.65;0.88;;;19.60;99.90;;;;;;4125411;28;20110;-69
2022/07/07 09:23:34;;;;;;;2.88;0.70;;;19.60;99.90;;;;;;4142096;28;20038;-70
2022/07/07 09:25:40;;;;;;;5.55;1.10;;;19.70;99.90;;;;;;4120039;28;20065;-69
2022/07/07 09:27:57;;;;;;;1.20;0.65;;;19.70;99.90;;;;;;4120208;28;20042;-68
2022/07/07 09:29:57;;;;;;;3.95;0.85;;;19.80;99.90;;;;;;4129042;28;22644;-68
2022/07/07 09:32:04;;;;;;;3.20;0.80;;;19.90;99.90;;;;;;4126532;28;20046;-68
2022/07/07 09:34:12;;;;;;;5.22;0.70;;;20.10;99.90;;;;;;4129946;28;20085;-68
2022/07/07 09:38:40;;;;;;;2.67;0.70;;;20.30;99.90;;;;;;4135500;28;20037;-72
2022/07/07 09:40:59;;;;;;;2.47;0.80;;;20.20;99.90;;;;;;4133719;28;20077;-71
2022/07/07 09:43:03;;;;;;;1.45;0.80;;;20.10;99.90;;;;;;4143995;28;20041;-72
2022/07/07 09:45:05;;;;;;;7.38;1.17;;;20.00;99.90;;;;;;4153066;28;20054;-72
2022/07/07 09:47:09;;;;;;;2.95;1.23;;;19.80;99.90;;;;;;4139863;28;20038;-72
2022/07/07 09:49:12;;;;;;;5.10;0.90;;;19.70;99.90;;;;;;4135192;28;20426;-71
2022/07/07 09:51:28;;;;;;;1.25;0.40;;;19.80;99.90;;;;;;4131818;28;20548;-72
2022/07/07 09:53:28;;;;;;;2.17;0.93;;;20.00;99.90;;;;;;4123311;28;20038;-72
2022/07/07 09:55:29;;;;;;;2.92;0.80;;;20.10;99.90;;;;;;4128600;28;20031;-72
2022/07/07 09:57:29;;;;;;;2.38;1.02;;;20.20;99.90;;;;;;4134242;28;20042;-72
2022/07/07 09:59:30;;;;;;;2.00;0.80;;;20.30;99.90;;;;;;4153794;28;20034;-72
2022/07/07 10:01:34;;;;;;;2.30;0.70;;;20.40;99.90;;;;;;4138870;28;20073;-72
2022/07/07 10:03:35;;;;;;;4.03;1.00;;;20.60;99.90;;;;;;4137416;28;20038;-72
2022/07/07 10:05:36;;;;;;;1.88;0.82;;;20.60;99.90;;;;;;4123711;28;20525;-72
2022/07/07 10:07:37;;;;;;;2.42;0.82;;;20.60;99.90;;;;;;4123631;28;20126;-72
2022/07/07 10:09:44;;;;;;;4.50;1.15;;;20.60;99.90;;;;;;4134016;28;20069;-71
2022/07/07 10:11:50;;;;;;;5.15;1.20;;;20.50;99.90;;;;;;4134194;28;20092;-71
2022/07/07 10:13:54;;;;;;;4.50;1.17;;;20.50;99.90;;;;;;4135111;28;20520;-71
2022/07/07 10:15:55;;;;;;;4.15;0.82;;;20.40;99.90;;;;;;4134305;28;20031;-72
2022/07/07 10:17:56;;;;;;;3.47;0.95;;;20.30;99.90;;;;;;4138099;28;20045;-72
2022/07/07 10:19:58;;;;;;;4.95;1.15;;;20.10;99.90;;;;;;4152096;28;20038;-72
2022/07/07 10:21:59;;;;;;;2.25;0.90;;;20.00;99.90;;;;;;4118830;28;20101;-72
2022/07/07 10:24:01;;;;;;;1.20;0.50;;;19.90;99.90;;;;;;4134569;28;20034;-72
2022/07/07 10:26:04;;;;;;;3.50;0.38;;;19.90;99.90;;;;;;4134331;28;20108;-72
2022/07/07 10:28:04;;;;;;;2.17;0.80;;;19.90;99.90;;;;;;4134690;28;20110;-71
2022/07/07 10:30:05;;;;;;;3.80;0.80;;;19.90;99.90;;;;;;4134906;28;20030;-74
2022/07/07 10:32:38;;;;;;;1.83;0.80;;;19.90;99.90;;;;;;4134198;28;20129;-71
2022/07/07 10:34:41;;;;;;;3.22;0.40;;;20.00;99.90;;;;;;4132908;28;20419;-70